»·PEaware :: SWA1263 KLGB-KOAK

SWA1263 :: KLGB-KOAK

FLIGHT INFORMATION

Flight Status: Arrived
Operator:
Southwest Airlines
More flights by this operator :: More flights under this callsign
Pilot: John C. (18682)
Aircraft: BOEING 737-800
(B738)
More flights by this aircraft type
Origin: KLGB Long Beach
United States
Destination: KOAK Metro Oakland Intl
United States
More flights between these airports :: More routes between these airports
Route: TOPMM4 COREZ RGOOD EMZOH3
File this flight plan on PilotEdge
Remarks:
Altitude:
(Current/Filed)
36,000ft
Speed:
(Current/Filed)
455kts
Departed: 27-Apr-20 05:17 PM
Arrived: 27-Apr-20 06:14 PM
Distance/Time
Traveled:
306nm/0:56
Distance/Time
To Go:
Arrived

Flight Plot

Page will automatically refresh every two minutes.

Flight plan parsing failed; only flown route is shown


Map Options




Map Legend


Flown Route
Filed Route
Departure Airport
Arrival Airport
Navaid (VOR, NDB)
Fix

Horizontal Profiles

Position Reports

Time Latitude Longitude Heading Altitude Ground
Speed
27-Apr-20 16:57 33.817000 -118.146171 88 42ft 0kts
27-Apr-20 16:58 33.817000 -118.146171 88 42ft 0kts
27-Apr-20 16:59 33.817000 -118.146171 88 42ft 0kts
27-Apr-20 17:00 33.817000 -118.146171 88 42ft 0kts
27-Apr-20 17:01 33.817000 -118.146171 88 42ft 0kts
27-Apr-20 17:02 33.817000 -118.146171 88 42ft 0kts
27-Apr-20 17:03 33.817000 -118.146171 88 42ft 0kts
27-Apr-20 17:04 33.817000 -118.146171 88 42ft 0kts
27-Apr-20 17:05 33.817000 -118.146171 88 42ft 0kts
27-Apr-20 17:06 33.817000 -118.146171 88 42ft 0kts
27-Apr-20 17:07 33.817000 -118.146171 88 42ft 0kts
27-Apr-20 17:08 33.817000 -118.146171 88 42ft 0kts
27-Apr-20 17:09 33.816991 -118.146684 88 43ft 2kts
27-Apr-20 17:10 33.817276 -118.147010 180 43ft 0kts
27-Apr-20 17:11 33.817276 -118.147010 180 43ft 0kts
27-Apr-20 17:12 33.817156 -118.147011 180 43ft 5kts
27-Apr-20 17:13 33.813748 -118.144602 135 37ft 20kts
27-Apr-20 17:15 33.809271 -118.139163 135 33ft 26kts
27-Apr-20 17:16 33.807224 -118.138013 235 32ft 8kts
27-Apr-20 17:17 33.821160 -118.155330 315 99ft 172kts
27-Apr-20 17:18 33.852892 -118.203904 295 1939ft 225kts
27-Apr-20 17:19 33.869460 -118.285445 283 4534ft 262kts
27-Apr-20 17:20 33.886141 -118.372684 284 6000ft 266kts
27-Apr-20 17:21 33.916950 -118.451873 316 6004ft 267kts
27-Apr-20 17:22 33.980923 -118.497919 331 6007ft 270kts
27-Apr-20 17:23 34.046846 -118.530899 336 6006ft 271kts
27-Apr-20 17:24 34.118909 -118.563570 341 8521ft 277kts
27-Apr-20 17:25 34.195536 -118.590784 342 10629ft 319kts
27-Apr-20 17:26 34.285318 -118.623264 343 12910ft 346kts
27-Apr-20 17:27 34.378875 -118.656792 342 15606ft 358kts
27-Apr-20 17:28 34.470729 -118.704836 330 18131ft 369kts
27-Apr-20 17:29 34.560507 -118.768499 330 20441ft 380kts
27-Apr-20 17:30 34.653219 -118.834128 330 22500ft 391kts
27-Apr-20 17:31 34.748359 -118.901610 330 23146ft 395kts
27-Apr-20 17:31 34.828068 -118.958392 330 24119ft 402kts
27-Apr-20 17:33 34.941948 -119.039936 330 26088ft 413kts
27-Apr-20 17:34 35.041588 -119.111392 329 27678ft 420kts
27-Apr-20 17:34 35.126144 -119.172118 329 28822ft 427kts
27-Apr-20 17:35 35.229192 -119.246254 329 30160ft 433kts
27-Apr-20 17:37 35.349024 -119.332713 328 32069ft 427kts
27-Apr-20 17:37 35.433628 -119.393937 328 33337ft 423kts
27-Apr-20 17:38 35.533753 -119.467184 325 34722ft 418kts
27-Apr-20 17:39 35.625009 -119.554221 320 35974ft 415kts
27-Apr-20 17:40 35.714686 -119.645143 320 36084ft 418kts
27-Apr-20 17:41 35.803703 -119.736177 319 36082ft 416kts
27-Apr-20 17:42 35.892716 -119.827543 319 36082ft 417kts
27-Apr-20 17:43 35.977022 -119.924952 316 36082ft 417kts
27-Apr-20 17:44 36.060667 -120.024229 316 36082ft 417kts
27-Apr-20 17:45 36.144197 -120.123501 316 36082ft 417kts
27-Apr-20 17:46 36.227648 -120.222938 316 36082ft 417kts
27-Apr-20 17:47 36.310716 -120.322213 316 36082ft 417kts
27-Apr-20 17:48 36.393034 -120.420907 316 36082ft 409kts
27-Apr-20 17:49 36.475003 -120.519478 316 35982ft 414kts
27-Apr-20 17:50 36.559667 -120.620378 318 33106ft 423kts
27-Apr-20 17:51 36.644120 -120.713919 318 30090ft 423kts
27-Apr-20 17:52 36.730352 -120.809522 318 28040ft 415kts
27-Apr-20 17:53 36.814083 -120.902561 318 25935ft 393kts
27-Apr-20 17:54 36.894310 -120.991597 319 23507ft 382kts
27-Apr-20 17:55 36.972501 -121.078505 318 21115ft 372kts
27-Apr-20 17:56 37.048574 -121.163280 318 18761ft 362kts
27-Apr-20 17:57 37.121908 -121.245376 318 16481ft 344kts
27-Apr-20 17:58 37.191275 -121.325677 317 14302ft 333kts
27-Apr-20 17:59 37.258654 -121.404141 317 12190ft 328kts
27-Apr-20 18:00 37.324344 -121.480720 317 10625ft 307kts
27-Apr-20 18:01 37.383328 -121.549611 317 9765ft 278kts
27-Apr-20 18:02 37.439833 -121.615350 312 8290ft 270kts
27-Apr-20 18:03 37.482965 -121.689521 306 7010ft 253kts
27-Apr-20 18:04 37.523695 -121.762681 299 6981ft 257kts
27-Apr-20 18:05 37.540521 -121.848964 279 6580ft 246kts
27-Apr-20 18:06 37.549961 -121.932106 279 5322ft 233kts
27-Apr-20 18:07 37.564526 -122.006845 302 4315ft 212kts
27-Apr-20 18:08 37.600500 -122.063492 309 3119ft 192kts
27-Apr-20 18:09 37.632844 -122.111663 308 2126ft 167kts
27-Apr-20 18:10 37.660728 -122.153325 308 1281ft 146kts
27-Apr-20 18:11 37.686927 -122.192421 307 481ft 142kts
27-Apr-20 18:12 37.710014 -122.227013 309 14ft 68kts
27-Apr-20 18:13 37.714516 -122.230029 129 13ft 12kts
27-Apr-20 18:14 37.712116 -122.225365 61 13ft 9kts
27-Apr-20 18:15 37.712853 -122.221800 130 13ft 12kts
27-Apr-20 18:16 37.709872 -122.217137 127 13ft 18kts
27-Apr-20 18:17 37.708918 -122.213589 114 13ft 5kts
27-Apr-20 18:18 37.708896 -122.213529 114 13ft 0kts

Navigation Log

Ident Type
Flight plan parsing failed, navigation log unavailable